Bowman, Georgia
Current Conditions -  °F | °C
As of 2:51 AM on Wednesday 26 Nov 2014 (Local Time) from KAHN Reporting Station
Light Rain Light Rain  
Wind Chill: 46°   Ceiling: 7000
Heat Index: 46°   Visibility: 5mi
Dew Point: 45°   Wind: 3mph
Humidity: 96%   Direction: 320°NW
Pressure: 29.97"   Gusts: NA
Location:  34.2°N, 83.03°W
Report Text: KAHN 260751Z AUTO 32003KT 5SM -RA BR OVC070 08/07 A2997 RMK AO2 SLP150 P0005 T00780072
Loading
Personal Weather Stations






























Interactive Weather Map New forecast layout! Learn more

10-Day Weather Forecast

Advertisements
Track Severe Weather on mobile